createdAt,value
2022-11-23T00:01:39.479Z,2.20
2022-11-23T00:04:08.479Z,3.67
2022-11-23T00:06:35.228Z,3.10
2022-11-23T00:09:02.060Z,3.57
2022-11-23T00:11:30.104Z,2.77
2022-11-23T00:13:56.880Z,2.50
2022-11-23T00:16:25.260Z,3.03
2022-11-23T00:18:52.881Z,2.83
2022-11-23T00:21:19.945Z,2.47
2022-11-23T00:23:47.152Z,1.50
2022-11-23T00:26:14.385Z,1.67
2022-11-23T00:28:42.755Z,1.90
2022-11-23T00:31:11.340Z,3.27
2022-11-23T00:33:38.250Z,2.20
2022-11-23T00:36:07.304Z,2.47
2022-11-23T00:38:33.866Z,1.83
2022-11-23T00:41:01.507Z,3.10
2022-11-23T00:43:28.166Z,2.60
2022-11-23T00:46:12.387Z,1.53
2022-11-23T00:48:39.031Z,3.27
2022-11-23T00:51:07.450Z,3.03
2022-11-23T00:53:34.288Z,2.80
2022-11-23T00:56:00.861Z,3.63
2022-11-23T00:58:27.440Z,2.37
2022-11-23T01:01:02.059Z,3.53
2022-11-23T01:03:30.908Z,2.40
2022-11-23T01:06:02.632Z,2.50
2022-11-23T01:08:29.212Z,2.57
2022-11-23T01:10:59.111Z,2.77
2022-11-23T01:13:25.640Z,2.13
2022-11-23T01:15:52.239Z,2.07
2022-11-23T01:18:18.784Z,2.83
2022-11-23T01:20:46.722Z,2.67
2022-11-23T01:23:13.277Z,1.53
2022-11-23T01:25:40.226Z,3.23
2022-11-23T01:28:07.009Z,1.90
2022-11-23T01:30:35.683Z,1.77
2022-11-23T01:33:02.256Z,1.70
2022-11-23T01:35:29.269Z,3.13
2022-11-23T01:37:57.177Z,2.10
2022-11-23T01:40:23.687Z,2.67
2022-11-23T01:42:54.304Z,3.87
2022-11-23T01:45:33.873Z,1.53
2022-11-23T01:48:00.886Z,2.00
2022-11-23T01:50:27.503Z,2.70
2022-11-23T01:52:54.083Z,1.93
2022-11-23T01:55:22.087Z,2.13
2022-11-23T01:57:48.724Z,2.50
2022-11-23T02:00:15.811Z,1.63
2022-11-23T02:02:47.582Z,2.03
2022-11-23T02:05:16.205Z,1.87
2022-11-23T02:07:43.177Z,2.93
2022-11-23T02:10:09.943Z,3.27
2022-11-23T02:12:37.858Z,1.97
2022-11-23T02:15:05.252Z,2.20
2022-11-23T02:17:33.620Z,1.97
2022-11-23T02:20:07.710Z,2.93
2022-11-23T02:22:44.768Z,2.40
2022-11-23T02:25:19.519Z,2.07
2022-11-23T02:27:47.823Z,2.10
2022-11-23T02:30:14.483Z,2.80
2022-11-23T02:32:42.316Z,1.67
2022-11-23T02:35:10.773Z,2.97
2022-11-23T02:37:37.594Z,2.67
2022-11-23T02:40:14.559Z,3.13
2022-11-23T02:42:41.160Z,2.50
2022-11-23T02:45:18.952Z,3.77
2022-11-23T02:47:45.545Z,2.13
2022-11-23T02:50:12.081Z,1.93
2022-11-23T02:52:38.594Z,2.93
2022-11-23T02:55:05.757Z,1.90
2022-11-23T02:57:32.265Z,2.37
2022-11-23T02:59:58.806Z,3.43
2022-11-23T03:02:26.824Z,2.20
2022-11-23T03:04:53.394Z,2.83
2022-11-23T03:07:19.981Z,2.87
2022-11-23T03:09:46.550Z,2.43
2022-11-23T03:12:13.071Z,3.83
2022-11-23T03:14:39.604Z,1.57
2022-11-23T03:17:06.113Z,2.03
2022-11-23T03:19:34.400Z,1.10
2022-11-23T03:22:01.199Z,1.80
2022-11-23T03:24:27.714Z,2.07
2022-11-23T03:26:54.279Z,2.20
2022-11-23T03:29:21.076Z,2.53
2022-11-23T03:31:47.683Z,2.87
2022-11-23T03:34:14.205Z,1.87
2022-11-23T03:36:42.112Z,3.00
2022-11-23T03:39:08.676Z,2.27
2022-11-23T03:41:35.382Z,2.60
2022-11-23T03:44:02.091Z,2.33
2022-11-23T03:46:28.683Z,3.00
2022-11-23T03:48:55.200Z,3.43
2022-11-23T03:51:22.033Z,2.47
2022-11-23T03:53:49.933Z,2.30
2022-11-23T03:56:16.486Z,3.83
2022-11-23T03:58:43.023Z,2.27
2022-11-23T04:01:09.582Z,1.27
2022-11-23T04:03:36.263Z,1.53
2022-11-23T04:06:02.917Z,2.73
2022-11-23T04:08:29.489Z,2.63
2022-11-23T04:10:58.365Z,3.57
2022-11-23T04:13:25.162Z,3.23
2022-11-23T04:15:51.716Z,2.43
2022-11-23T04:18:18.274Z,1.97
2022-11-23T04:20:44.815Z,2.43
2022-11-23T04:23:13.480Z,3.07
2022-11-23T04:25:40.418Z,2.30
2022-11-23T04:28:08.427Z,3.00
2022-11-23T04:30:35.039Z,3.87
2022-11-23T04:33:01.603Z,2.43
2022-11-23T04:35:28.135Z,4.27
2022-11-23T04:37:54.670Z,2.13
2022-11-23T04:40:21.286Z,2.73
2022-11-23T04:42:47.817Z,3.20
2022-11-23T04:45:15.941Z,3.40
2022-11-23T04:47:42.514Z,2.33
2022-11-23T04:50:09.350Z,3.00
2022-11-23T04:52:35.877Z,3.83
2022-11-23T04:55:02.411Z,2.00
2022-11-23T04:57:28.964Z,4.10
2022-11-23T04:59:55.519Z,3.03
2022-11-23T05:02:23.540Z,2.17
2022-11-23T05:04:50.096Z,3.13
2022-11-23T05:07:16.942Z,2.53
2022-11-23T05:09:43.481Z,2.37
2022-11-23T05:12:10.062Z,1.87
2022-11-23T05:14:36.710Z,4.33
2022-11-23T05:17:03.263Z,3.10
2022-11-23T05:19:31.431Z,1.57
2022-11-23T05:21:58.169Z,2.67
2022-11-23T05:24:24.749Z,2.03
2022-11-23T05:26:56.023Z,2.87
2022-11-23T05:29:22.783Z,2.07
2022-11-23T05:31:49.330Z,2.37
2022-11-23T05:34:16.000Z,1.67
2022-11-23T05:36:44.057Z,1.70
2022-11-23T05:39:10.794Z,2.77
2022-11-23T05:41:37.326Z,2.77
2022-11-23T05:44:04.039Z,3.10
2022-11-23T05:46:30.669Z,2.73
2022-11-23T05:48:57.210Z,3.40
2022-11-23T05:51:23.734Z,2.70
2022-11-23T05:53:51.669Z,3.80
2022-11-23T05:56:18.304Z,3.57
2022-11-23T05:58:44.866Z,4.33
2022-11-23T06:01:11.395Z,3.67
2022-11-23T06:03:37.936Z,3.97
2022-11-23T06:06:04.833Z,2.70
2022-11-23T06:08:31.399Z,3.63
2022-11-23T06:11:01.315Z,3.33
2022-11-23T06:13:27.867Z,4.03
2022-11-23T06:15:54.420Z,2.23
2022-11-23T06:18:20.972Z,3.87
2022-11-23T06:20:47.510Z,3.30
2022-11-23T06:23:14.045Z,1.70
2022-11-23T06:25:40.643Z,3.40
2022-11-23T06:28:08.585Z,2.40
2022-11-23T06:30:35.156Z,3.70
2022-11-23T06:33:02.922Z,2.93
2022-11-23T06:35:29.455Z,2.63
2022-11-23T06:37:55.987Z,3.17
2022-11-23T06:40:22.571Z,3.43
2022-11-23T06:42:49.066Z,3.60
2022-11-23T06:45:17.148Z,2.00
2022-11-23T06:47:43.695Z,3.00
2022-11-23T06:50:10.308Z,4.03
2022-11-23T06:52:36.833Z,2.87
2022-11-23T06:55:03.654Z,4.03
2022-11-23T06:57:30.196Z,4.27
2022-11-23T06:59:56.757Z,3.23
2022-11-23T07:02:24.634Z,2.53
2022-11-23T07:04:51.464Z,4.07
2022-11-23T07:07:18.042Z,3.30
2022-11-23T07:09:44.626Z,2.57
2022-11-23T07:12:11.181Z,3.93
2022-11-23T07:14:37.718Z,2.77
2022-11-23T07:17:04.305Z,2.57
2022-11-23T07:19:32.553Z,4.67
2022-11-23T07:21:59.453Z,3.97
2022-11-23T07:24:25.999Z,4.37
2022-11-23T07:26:52.639Z,2.87
2022-11-23T07:29:19.199Z,3.17
2022-11-23T07:31:45.719Z,2.33
2022-11-23T07:34:12.331Z,2.87
2022-11-23T07:36:40.265Z,2.30
2022-11-23T07:39:06.783Z,2.60
2022-11-23T07:41:33.321Z,4.33
2022-11-23T07:43:59.855Z,4.37
2022-11-23T07:46:26.384Z,3.50
2022-11-23T07:48:53.078Z,1.40
2022-11-23T07:51:19.763Z,2.23
2022-11-23T07:53:47.727Z,3.30
2022-11-23T07:56:14.273Z,3.50
2022-11-23T07:58:40.841Z,3.63
2022-11-23T08:01:07.381Z,2.37
2022-11-23T08:03:34.118Z,3.43
2022-11-23T08:06:00.732Z,2.20
2022-11-23T08:08:27.478Z,3.07
2022-11-23T08:10:55.392Z,3.70
2022-11-23T08:13:22.756Z,4.27
2022-11-23T08:15:54.456Z,2.27
2022-11-23T08:18:22.688Z,3.00
2022-11-23T08:20:49.269Z,3.13
2022-11-23T08:23:15.823Z,4.93
2022-11-23T08:25:42.360Z,2.20
2022-11-23T08:28:10.526Z,1.97
2022-11-23T08:30:37.306Z,2.67
2022-11-23T08:33:04.424Z,2.13
2022-11-23T08:35:32.695Z,2.23
2022-11-23T08:37:59.208Z,1.87
2022-11-23T08:40:26.081Z,2.53
2022-11-23T08:42:52.758Z,3.53
2022-11-23T08:45:21.164Z,1.47
2022-11-23T08:47:48.433Z,3.07
2022-11-23T08:50:15.764Z,3.37
2022-11-23T08:52:42.365Z,1.87
2022-11-23T08:55:09.750Z,3.20
2022-11-23T08:57:36.261Z,3.17
2022-11-23T09:00:03.543Z,3.03
2022-11-23T09:02:31.574Z,2.07
2022-11-23T09:04:58.108Z,3.03
2022-11-23T09:07:24.747Z,3.03
2022-11-23T09:09:51.285Z,4.53
2022-11-23T09:12:17.852Z,3.10
2022-11-23T09:14:44.459Z,3.13
2022-11-23T09:17:11.035Z,4.40
2022-11-23T09:19:38.979Z,1.67
2022-11-23T09:22:05.520Z,2.07
2022-11-23T09:24:32.576Z,3.17
2022-11-23T09:26:59.321Z,1.80
2022-11-23T09:29:25.873Z,4.37
2022-11-23T09:31:52.572Z,2.87
2022-11-23T09:34:19.200Z,2.57
2022-11-23T09:36:47.117Z,2.20
2022-11-23T09:39:13.876Z,2.20
2022-11-23T09:42:01.115Z,2.53
2022-11-23T09:44:35.293Z,3.03
2022-11-23T09:47:14.353Z,2.43
2022-11-23T09:49:49.411Z,2.33
2022-11-23T09:52:20.989Z,2.10
2022-11-23T09:54:51.086Z,2.93
2022-11-23T09:57:21.773Z,2.50
2022-11-23T09:59:52.598Z,3.43
2022-11-23T10:02:22.275Z,2.70
2022-11-23T10:04:50.369Z,2.77
2022-11-23T10:07:33.086Z,2.20
2022-11-23T10:10:10.460Z,2.97
2022-11-23T10:12:47.324Z,2.60
2022-11-23T10:15:21.859Z,3.13
2022-11-23T10:18:02.709Z,1.60
2022-11-23T10:20:41.714Z,2.67
2022-11-23T10:23:17.470Z,2.00
2022-11-23T10:25:48.675Z,4.10
2022-11-23T10:28:17.287Z,5.00
2022-11-23T10:30:46.866Z,4.03
2022-11-23T10:33:23.001Z,2.50
2022-11-23T10:35:49.552Z,3.27
2022-11-23T10:38:19.708Z,1.97
2022-11-23T10:40:53.933Z,3.97
2022-11-23T10:43:24.801Z,3.23
2022-11-23T10:45:54.726Z,2.60
2022-11-23T10:48:34.394Z,3.80
2022-11-23T10:51:16.317Z,2.90
2022-11-23T10:53:44.324Z,8.00
2022-11-23T10:56:13.111Z,7.83
2022-11-23T10:58:45.327Z,3.17
2022-11-23T11:01:14.328Z,2.67
2022-11-23T11:03:40.991Z,4.57
2022-11-23T11:06:09.937Z,3.33
2022-11-23T11:08:51.287Z,2.93
2022-11-23T11:11:26.157Z,3.83
2022-11-23T11:14:01.912Z,3.60
2022-11-23T11:16:30.897Z,2.83
2022-11-23T11:18:57.730Z,3.47
2022-11-23T11:21:32.049Z,4.27
2022-11-23T11:24:02.392Z,2.83
2022-11-23T11:26:30.817Z,3.53
2022-11-23T11:28:59.872Z,2.73
2022-11-23T11:31:52.227Z,3.43
2022-11-23T11:34:23.662Z,2.53
2022-11-23T11:37:00.504Z,4.70
2022-11-23T11:39:33.904Z,4.97
2022-11-23T11:42:05.894Z,2.43
2022-11-23T11:44:36.744Z,2.50
2022-11-23T11:47:13.218Z,3.33
2022-11-23T11:49:43.471Z,3.23
2022-11-23T11:52:14.371Z,3.07
2022-11-23T11:54:46.724Z,3.37
2022-11-23T11:57:19.509Z,2.90
2022-11-23T11:59:48.644Z,3.53
2022-11-23T12:02:22.596Z,2.03
2022-11-23T12:04:57.552Z,2.97
2022-11-23T12:07:28.941Z,3.20
2022-11-23T12:10:04.001Z,4.30
2022-11-23T12:12:33.117Z,3.27
2022-11-23T12:14:59.687Z,2.90
2022-11-23T12:17:45.156Z,3.80
2022-11-23T12:20:19.569Z,1.87
2022-11-23T12:22:59.063Z,2.10
2022-11-23T12:25:32.575Z,3.30
2022-11-23T12:28:20.388Z,2.30
2022-11-23T12:30:57.979Z,2.97
2022-11-23T12:36:48.496Z,1.90
2022-11-23T12:39:33.274Z,3.20
2022-11-23T12:42:06.192Z,1.60
2022-11-23T12:44:59.534Z,2.50
2022-11-23T12:47:38.755Z,3.13
2022-11-23T12:50:14.297Z,3.33
2022-11-23T12:52:57.862Z,2.93
2022-11-23T12:55:32.857Z,2.87
2022-11-23T12:58:05.621Z,3.30
2022-11-23T13:00:37.731Z,3.00
2022-11-23T13:03:40.063Z,4.60
2022-11-23T13:07:26.187Z,4.17
2022-11-23T13:10:00.540Z,2.67
2022-11-23T13:12:41.776Z,2.60
2022-11-23T13:15:26.556Z,4.00
2022-11-23T13:18:00.599Z,3.53
2022-11-23T13:20:47.870Z,1.77
2022-11-23T13:23:14.648Z,4.80
2022-11-23T13:25:41.323Z,4.33
2022-11-23T13:28:29.449Z,2.23
2022-11-23T13:31:22.699Z,2.70
2022-11-23T13:33:51.140Z,2.53
2022-11-23T13:37:12.227Z,2.30
2022-11-23T13:40:03.200Z,2.67
2022-11-23T13:42:32.523Z,2.73
2022-11-23T13:45:27.437Z,2.53
2022-11-23T13:48:34.415Z,4.00
2022-11-23T13:51:01.440Z,2.90
2022-11-23T13:53:32.284Z,3.00
2022-11-23T13:56:16.335Z,2.13
2022-11-23T13:58:52.130Z,3.43
2022-11-23T14:01:51.895Z,2.77
2022-11-23T14:04:24.368Z,2.67
2022-11-23T14:06:53.485Z,3.97
2022-11-23T14:09:25.716Z,2.53
2022-11-23T14:12:25.875Z,3.57
2022-11-23T14:14:58.564Z,3.20
2022-11-23T14:17:43.911Z,2.73
2022-11-23T14:20:30.926Z,2.53
2022-11-23T14:23:19.724Z,3.43
2022-11-23T14:25:58.193Z,3.47
2022-11-23T14:28:40.368Z,5.10
2022-11-23T14:31:18.577Z,2.37
2022-11-23T14:33:53.110Z,1.50
2022-11-23T14:36:31.856Z,3.83
2022-11-23T14:39:35.276Z,3.40
2022-11-23T14:42:04.891Z,3.20
2022-11-23T14:44:38.400Z,3.00
2022-11-23T14:47:06.915Z,1.83
2022-11-23T14:49:34.052Z,2.73
2022-11-23T14:52:04.119Z,5.47
2022-11-23T14:54:31.956Z,5.57
2022-11-23T14:57:01.703Z,5.20
2022-11-23T14:59:32.049Z,7.10
2022-11-23T15:02:01.575Z,9.07
2022-11-23T15:04:30.966Z,13.00
2022-11-23T15:07:03.573Z,9.70
2022-11-23T15:09:49.816Z,10.03
2022-11-23T15:12:24.766Z,4.63
2022-11-23T15:14:52.078Z,5.50
2022-11-23T15:17:20.592Z,3.20
2022-11-23T15:19:55.162Z,2.70
2022-11-23T15:22:23.489Z,3.93
2022-11-23T15:24:50.580Z,3.70
2022-11-23T15:27:22.792Z,3.40
2022-11-23T15:29:54.037Z,2.57
2022-11-23T15:32:34.960Z,5.70
2022-11-23T15:35:04.159Z,5.83
2022-11-23T15:37:36.713Z,6.47
2022-11-23T15:40:04.041Z,4.03
2022-11-23T15:42:31.008Z,3.57
2022-11-23T15:44:57.506Z,4.23
2022-11-23T15:47:26.822Z,5.20
2022-11-23T15:49:59.245Z,7.70
2022-11-23T15:52:28.940Z,10.40
2022-11-23T15:54:56.925Z,9.00
2022-11-23T15:57:25.842Z,8.73
2022-11-23T15:59:58.002Z,6.37
2022-11-23T16:02:26.697Z,5.17
2022-11-23T16:05:11.070Z,4.00
2022-11-23T16:07:50.032Z,3.40
2022-11-23T16:10:20.706Z,3.60
2022-11-23T16:12:49.221Z,4.87
2022-11-23T16:15:41.005Z,6.00
2022-11-23T16:18:20.696Z,5.83
2022-11-23T16:20:50.111Z,5.60
2022-11-23T16:23:20.209Z,4.53
2022-11-23T16:25:54.912Z,4.93
2022-11-23T16:28:27.323Z,3.70
2022-11-23T16:30:54.285Z,4.00
2022-11-23T16:33:20.921Z,3.73
2022-11-23T16:35:47.850Z,3.00
2022-11-23T16:38:14.457Z,4.03
2022-11-23T16:40:41.677Z,4.37
2022-11-23T16:43:10.664Z,3.37
2022-11-23T16:45:39.531Z,3.43
2022-11-23T16:48:36.707Z,2.93
2022-11-23T16:51:03.272Z,3.47
2022-11-23T16:53:30.050Z,5.77
2022-11-23T16:55:58.452Z,5.37
2022-11-23T16:58:29.633Z,4.63
2022-11-23T17:00:56.451Z,5.27
2022-11-23T17:03:23.033Z,5.20
2022-11-23T17:05:49.699Z,4.80
2022-11-23T17:08:23.019Z,4.20
2022-11-23T17:10:50.826Z,4.17
2022-11-23T17:13:22.473Z,4.77
2022-11-23T17:15:50.665Z,3.67
2022-11-23T17:18:17.466Z,5.60
2022-11-23T17:20:44.141Z,5.97
2022-11-23T17:23:11.211Z,25.17
2022-11-23T17:25:39.017Z,15.97
2022-11-23T17:28:11.224Z,9.23
2022-11-23T17:30:37.805Z,7.47
2022-11-23T17:33:05.838Z,7.07
2022-11-23T17:35:36.893Z,6.10
2022-11-23T17:38:05.226Z,5.10
2022-11-23T17:40:32.510Z,5.00
2022-11-23T17:42:59.099Z,5.13
2022-11-23T17:45:25.682Z,2.87
2022-11-23T17:47:52.328Z,4.80
2022-11-23T17:50:20.308Z,3.20
2022-11-23T17:52:47.967Z,5.07
2022-11-23T17:55:15.827Z,6.10
2022-11-23T17:57:42.738Z,8.93
2022-11-23T18:00:15.605Z,7.80
2022-11-23T18:02:42.132Z,6.90
2022-11-23T18:05:09.798Z,4.63
2022-11-23T18:07:38.073Z,3.57
2022-11-23T18:10:05.350Z,4.40
2022-11-23T18:12:31.870Z,3.97
2022-11-23T18:14:58.454Z,4.10
2022-11-23T18:17:24.974Z,5.37
2022-11-23T18:19:51.509Z,4.57
2022-11-23T18:22:18.030Z,3.87
2022-11-23T18:24:45.957Z,8.87
2022-11-23T18:27:12.530Z,10.80
2022-11-23T18:29:39.169Z,9.90
2022-11-23T18:32:06.012Z,6.07
2022-11-23T18:34:32.590Z,5.87
2022-11-23T18:36:59.126Z,5.00
2022-11-23T18:39:25.687Z,7.23
2022-11-23T18:41:53.610Z,5.40
2022-11-23T18:44:20.221Z,4.50
2022-11-23T18:46:46.812Z,4.47
2022-11-23T18:49:13.463Z,6.20
2022-11-23T18:51:40.036Z,7.60
2022-11-23T18:54:06.576Z,7.97
2022-11-23T18:56:33.140Z,6.03
2022-11-23T18:59:01.044Z,4.30
2022-11-23T19:01:27.615Z,5.83
2022-11-23T19:03:54.333Z,6.63
2022-11-23T19:06:23.257Z,5.40
2022-11-23T19:08:51.676Z,5.97
2022-11-23T19:11:20.328Z,4.63
2022-11-23T19:13:48.347Z,4.90
2022-11-23T19:16:19.049Z,4.27
2022-11-23T19:18:45.595Z,4.60
2022-11-23T19:21:13.812Z,7.23
2022-11-23T19:23:40.339Z,10.90
2022-11-23T19:26:06.938Z,12.43
2022-11-23T19:28:33.751Z,8.53
2022-11-23T19:31:09.259Z,8.10
2022-11-23T19:33:37.424Z,8.37
2022-11-23T19:36:07.845Z,5.93
2022-11-23T19:38:34.465Z,4.80
2022-11-23T19:41:01.145Z,4.57
2022-11-23T19:43:27.773Z,3.97
2022-11-23T19:45:54.743Z,3.90
2022-11-23T19:48:21.779Z,4.77
2022-11-23T19:50:55.833Z,3.37
2022-11-23T19:53:23.554Z,3.40
2022-11-23T19:55:52.412Z,3.90
2022-11-23T19:58:18.983Z,3.10
2022-11-23T20:00:45.507Z,3.40
2022-11-23T20:03:12.566Z,3.33
2022-11-23T20:05:39.121Z,3.83
2022-11-23T20:08:07.130Z,6.50
2022-11-23T20:10:33.643Z,5.50
2022-11-23T20:13:00.211Z,8.63
2022-11-23T20:15:26.790Z,6.10
2022-11-23T20:17:53.322Z,4.53
2022-11-23T20:20:19.864Z,6.83
2022-11-23T20:22:46.401Z,6.47
2022-11-23T20:25:14.572Z,16.33
2022-11-23T20:27:41.150Z,8.57
2022-11-23T20:30:08.361Z,7.07
2022-11-23T20:32:34.923Z,23.93
2022-11-23T20:35:01.512Z,32.80
2022-11-23T20:37:28.112Z,21.83
2022-11-23T20:39:54.657Z,12.43
2022-11-23T20:42:22.569Z,7.27
2022-11-23T20:44:49.146Z,12.43
2022-11-23T20:47:15.747Z,8.70
2022-11-23T20:49:42.396Z,6.87
2022-11-23T20:52:08.925Z,9.50
2022-11-23T20:54:35.852Z,16.47
2022-11-23T20:57:02.758Z,11.93
2022-11-23T20:59:30.729Z,66.40
2022-11-23T21:01:57.470Z,39.97
2022-11-23T21:04:24.348Z,19.07
2022-11-23T21:06:50.851Z,12.23
2022-11-23T21:09:17.552Z,10.93
2022-11-23T21:11:44.117Z,10.07
2022-11-23T21:14:17.537Z,8.37
2022-11-23T21:16:48.421Z,8.63
2022-11-23T21:19:15.062Z,7.77
2022-11-23T21:21:41.599Z,8.17
2022-11-23T21:24:08.428Z,7.07
2022-11-23T21:26:34.995Z,6.37
2022-11-23T21:29:01.827Z,4.40
2022-11-23T21:31:28.397Z,5.40
2022-11-23T21:33:56.462Z,7.17
2022-11-23T21:36:23.018Z,5.40
2022-11-23T21:38:49.598Z,5.03
2022-11-23T21:41:17.609Z,4.67
2022-11-23T21:43:44.294Z,3.57
2022-11-23T21:46:12.388Z,4.10
2022-11-23T21:48:39.851Z,3.70
2022-11-23T21:51:10.936Z,4.93
2022-11-23T21:53:38.190Z,3.83
2022-11-23T21:56:06.957Z,4.13
2022-11-23T21:58:34.248Z,3.07
2022-11-23T22:01:05.219Z,3.20
2022-11-23T22:03:35.309Z,3.07
2022-11-23T22:06:01.860Z,4.60
2022-11-23T22:08:30.038Z,3.50
2022-11-23T22:10:56.689Z,3.17
2022-11-23T22:13:23.259Z,4.37
2022-11-23T22:15:49.941Z,7.10
2022-11-23T22:18:16.481Z,11.13
2022-11-23T22:20:43.065Z,20.43
2022-11-23T22:23:09.617Z,14.57
2022-11-23T22:25:37.554Z,12.10
2022-11-23T22:28:04.399Z,8.23
2022-11-23T22:30:30.940Z,7.93
2022-11-23T22:32:57.477Z,4.93
2022-11-23T22:35:24.033Z,6.87
2022-11-23T22:37:50.565Z,3.97
2022-11-23T22:40:17.095Z,3.30
2022-11-23T22:42:45.022Z,2.93
2022-11-23T22:45:11.548Z,3.67
2022-11-23T22:47:38.071Z,3.10
2022-11-23T22:50:05.526Z,7.20
2022-11-23T22:52:32.071Z,4.70
2022-11-23T22:54:58.607Z,3.50
2022-11-23T22:57:25.143Z,3.23
2022-11-23T22:59:53.044Z,4.97
2022-11-23T23:02:19.660Z,3.53
2022-11-23T23:04:46.254Z,3.33
2022-11-23T23:07:12.825Z,3.07
2022-11-23T23:09:39.451Z,2.50
2022-11-23T23:12:06.418Z,2.87
2022-11-23T23:14:33.211Z,3.33
2022-11-23T23:17:01.348Z,2.70
2022-11-23T23:19:28.601Z,3.50
2022-11-23T23:21:55.094Z,3.10
2022-11-23T23:24:21.634Z,2.67
2022-11-23T23:26:48.132Z,3.10
2022-11-23T23:29:14.680Z,3.23
2022-11-23T23:31:41.247Z,1.93
2022-11-23T23:34:09.172Z,2.43
2022-11-23T23:36:35.961Z,3.27
2022-11-23T23:39:03.294Z,2.13
2022-11-23T23:41:29.957Z,3.07
2022-11-23T23:43:56.526Z,2.30
2022-11-23T23:46:23.165Z,2.23
2022-11-23T23:48:49.803Z,2.23
2022-11-23T23:51:19.085Z,2.37
2022-11-23T23:53:46.124Z,2.20
2022-11-23T23:56:14.094Z,2.77
2022-11-23T23:58:40.954Z,1.87
